Destinations M. R. Štefánik Airport

M. R. Štefánik Airport (LZIB / BTS)

Flights to M. R. Štefánik Airport

Flight number From ETE Dispatch
SPY-2466 EGPH Edinburgh Airport 02:25

Flights from M. R. Štefánik Airport

Flight number To ETE Dispatch
SPY-2467 EGPH Edinburgh Airport 02:40
About

M. R. Štefánik Airport facts

M. R. Štefánik Airport is located in Bratislava at an elevation of 132.9 meters or 436 feet.

Currently, Speedy Airlines serves 2 flights to and from M. R. Štefánik Airport.

Detailed airport info

Route map

Weather

Current weather

METAR

METAR

Metar data retrieved Sunday, 21 July 2024 at 19:55 UTC

LZIB 211930Z 34001KT CAVOK 25/13 Q1009 NOSIG
Wind Temperature
1 kt 25c